CDT,Max TemperatureF,Mean TemperatureF,Min TemperatureF,Max Dew PointF,MeanDew PointF,Min DewpointF,Max Humidity, Mean Humidity, Min Humidity, Max Sea Level PressureIn, Mean Sea Level PressureIn, Min Sea Level PressureIn, Max VisibilityMiles, Mean VisibilityMiles, Min VisibilityMiles, Max Wind SpeedMPH, Mean Wind SpeedMPH, Max Gust SpeedMPH,PrecipitationIn, CloudCover, Events, WindDirDegrees
2013-9-1,74,66,57,64,61,56,93,75,57,29.91,29.80,29.73,10,9,2,15,7,23,0.13,7,Rain-Thunderstorm,261
2013-9-2,59,49,39,55,48,42,100,86,72,30.08,30.01,29.91,10,8,1,14,5,23,0.01,6,Rain,336
2013-9-3,72,55,38,52,43,37,100,72,44,30.11,30.06,30.01,10,4,0,13,6,18,0.00,1,Fog,261
2013-9-4,72,59,45,58,53,46,93,70,47,30.23,30.12,30.01,10,10,10,9,4,14,0.00,3,,305
2013-9-5,72,56,39,53,45,39,100,71,41,30.34,30.27,30.23,10,7,0,8,3,12,0.00,1,Fog,190
2013-9-6,81,67,52,65,57,48,96,77,58,30.22,30.10,29.94,10,10,10,15,7,18,T,3,,215
2013-9-7,84,69,54,67,62,52,93,72,51,30.12,29.99,29.90,10,10,3,14,5,23,0.01,2,Rain,20
2013-9-8,71,60,48,54,49,46,93,69,45,30.19,30.10,30.02,10,10,10,17,7,22,T,2,Rain,109
2013-9-9,79,68,57,71,62,53,97,86,74,30.01,29.85,29.71,10,7,0,15,5,22,0.04,5,Fog-Rain,153
2013-9-10,82,70,58,70,66,57,100,76,51,29.96,29.85,29.75,10,6,1,18,6,24,0.06,4,Rain,256
2013-9-11,80,65,50,61,57,47,100,73,45,30.03,30.00,29.95,10,10,5,20,7,25,0.01,2,,274
2013-9-12,63,52,40,53,48,42,93,74,55,30.23,30.11,30.00,10,10,10,16,5,25,0.00,5,,342
2013-9-13,62,50,37,44,40,37,100,73,46,30.30,30.21,30.13,10,7,0,12,2,15,0.00,0,Fog,11
2013-9-14,69,54,38,53,44,36,100,73,45,30.16,30.08,30.00,10,9,2,16,6,23,0.13,1,Rain,228
2013-9-15,58,48,37,54,49,36,100,88,76,30.35,30.10,29.99,10,9,2,12,3,17,0.14,7,Rain,10
2013-9-16,62,46,29,44,35,28,100,70,39,30.48,30.40,30.35,10,8,0,9,2,15,0.00,0,Fog,88
2013-9-17,66,49,32,52,40,30,100,74,48,30.38,30.28,30.09,10,6,0,16,6,21,T,2,Fog-Rain,177
2013-9-18,66,60,54,63,58,52,100,97,93,30.08,29.95,29.86,9,3,1,12,6,17,0.21,7,Rain,163
2013-9-19,75,67,59,70,64,59,100,90,79,29.87,29.79,29.71,10,6,1,21,5,26,1.02,6,Rain-Thunderstorm,202
2013-9-20,69,57,45,63,56,45,93,76,59,29.84,29.75,29.69,10,9,4,20,9,23,0.02,7,Rain,279
2013-9-21,54,43,31,45,41,34,100,80,59,30.03,29.91,29.83,10,9,2,14,6,20,0.02,5,Rain,298
2013-9-22,59,44,29,41,34,28,100,74,47,30.14,30.06,30.00,10,5,0,9,3,17,0.00,3,Fog,139
2013-9-23,65,50,35,48,43,35,100,78,56,30.16,30.11,30.07,10,10,10,14,6,18,0.00,0,,152
2013-9-24,70,54,38,54,45,37,100,70,40,30.12,30.07,30.02,10,5,0,8,2,14,0.00,2,Fog,119
2013-9-25,69,54,38,50,45,38,100,73,45,30.08,30.04,30.00,10,5,0,9,2,14,0.00,2,Fog,110
2013-9-26,70,55,39,52,46,39,100,74,47,30.12,30.08,30.04,10,5,0,14,6,18,0.00,1,Fog,143
2013-9-27,76,63,50,54,49,46,89,66,43,30.13,30.08,30.02,10,10,10,20,8,25,0.00,0,,158
2013-9-28,74,62,49,61,52,45,96,75,53,30.03,29.87,29.74,10,9,2,26,12,36,0.32,6,Rain,221
2013-9-29,68,54,39,47,43,38,100,66,32,30.03,29.97,29.93,10,7,0,14,6,20,0.00,0,Fog,239
2013-9-30,68,59,49,45,44,43,86,63,39,29.95,29.83,29.76,10,10,10,23,10,32,0.00,0,,197